Terminal Aerodrome Forecast
Issued by NWS

Home | Current Version | Previous Version | Graphics & Text | Print | Product List | Glossary On
Versions: 1 2 3 4 5 6 7 8 9 10 11 12 13 14 15 16 17 18 19 20 21 22 23 24 25 26 27 28 29 30 31 32 33 34 35 36 37 38 39 40 41 42 43 44 45 46 47 48 49 50
000
FTUS43 KGRB 182300
TAFRHI
TAF
KRHI 182331Z 1900/1924 18004KT 4SM BR OVC005
      TEMPO 1900/1904 2SM -RA BR
     FM190400 VRB03KT 2SM BR VCTS BKN007 OVC012CB
      TEMPO 1906/1910 1/2SM +TSRA FG OVC006CB
     FM191400 32005KT 3SM BR SCT010 BKN035 PROB30 1914/1918 2SM
      -SHRA OVC012
     FM191800 33004KT 4SM BR VCSH BKN035
      TEMPO 1920/1924 1SM +TSRA BR OVC020CB=

USA.gov is the U.S. government's official web portal to all federal, state and local government web resources and services.